createdAt,value
2023-01-20T00:02:01.354Z,-2.07
2023-01-20T00:04:29.251Z,-2.05
2023-01-20T00:06:57.220Z,-2.01
2023-01-20T00:09:26.514Z,-1.99
2023-01-20T00:11:54.365Z,-1.98
2023-01-20T00:14:22.328Z,-1.98
2023-01-20T00:16:50.297Z,-2.18
2023-01-20T00:19:19.358Z,-2.00
2023-01-20T00:21:47.351Z,-2.60
2023-01-20T00:24:15.557Z,-2.02
2023-01-20T00:26:44.803Z,-2.06
2023-01-20T00:29:12.966Z,-2.08
2023-01-20T00:31:41.070Z,-2.13
2023-01-20T00:34:10.958Z,-2.41
2023-01-20T00:36:38.995Z,-2.67
2023-01-20T00:39:07.148Z,-2.35
2023-01-20T00:41:35.108Z,-2.22
2023-01-20T00:44:04.477Z,-2.25
2023-01-20T00:46:32.459Z,-2.25
2023-01-20T00:49:00.440Z,-2.31
2023-01-20T00:51:28.613Z,-2.31
2023-01-20T00:53:56.573Z,-2.34
2023-01-20T00:56:24.468Z,-2.35
2023-01-20T00:58:52.502Z,-2.38
2023-01-20T01:01:22.180Z,-2.62
2023-01-20T01:03:51.077Z,-2.37
2023-01-20T01:06:19.212Z,-2.63
2023-01-20T01:08:47.225Z,-2.59
2023-01-20T01:11:15.235Z,-2.46
2023-01-20T01:13:43.620Z,-2.36
2023-01-20T01:16:13.802Z,-2.38
2023-01-20T01:18:43.963Z,-2.38
2023-01-20T01:21:14.230Z,-2.38
2023-01-20T01:23:42.606Z,-2.37
2023-01-20T01:26:11.224Z,-2.36
2023-01-20T01:28:39.430Z,-2.44
2023-01-20T01:31:08.786Z,-2.22
2023-01-20T01:33:37.000Z,-2.28
2023-01-20T01:36:08.647Z,-2.14
2023-01-20T01:38:36.735Z,-2.09
2023-01-20T01:41:04.727Z,-2.17
2023-01-20T01:43:35.185Z,-2.08
2023-01-20T01:46:03.401Z,-2.18
2023-01-20T01:48:35.124Z,-2.08
2023-01-20T01:51:05.822Z,-2.28
2023-01-20T01:53:41.035Z,-2.09
2023-01-20T01:56:10.272Z,-2.12
2023-01-20T01:58:42.059Z,-2.18
2023-01-20T02:01:10.000Z,-2.17
2023-01-20T02:03:44.364Z,-2.29
2023-01-20T02:06:13.668Z,-2.27
2023-01-20T02:08:43.527Z,-2.23
2023-01-20T02:11:11.461Z,-2.26
2023-01-20T02:13:40.078Z,-2.23
2023-01-20T02:16:16.140Z,-2.24
2023-01-20T02:19:08.063Z,-2.23
2023-01-20T02:22:08.519Z,-2.25
2023-01-20T02:25:16.908Z,-2.28
2023-01-20T02:28:35.404Z,-2.30
2023-01-20T02:31:33.135Z,-2.31
2023-01-20T02:34:05.899Z,-2.32
2023-01-20T02:36:41.321Z,-2.34
2023-01-20T02:39:27.539Z,-2.62
2023-01-20T02:42:00.915Z,-2.34
2023-01-20T02:44:35.386Z,-2.32
2023-01-20T02:47:11.014Z,-2.29
2023-01-20T02:49:44.183Z,-2.30
2023-01-20T02:52:17.058Z,-2.30
2023-01-20T02:54:50.551Z,-2.26
2023-01-20T02:57:29.609Z,-2.24
2023-01-20T03:00:03.713Z,-2.24
2023-01-20T03:02:35.268Z,-2.16
2023-01-20T03:05:08.692Z,-2.13
2023-01-20T03:07:38.932Z,-2.11
2023-01-20T03:10:10.928Z,-2.08
2023-01-20T03:12:43.538Z,-2.05
2023-01-20T03:15:12.940Z,-2.00
2023-01-20T03:17:41.435Z,-1.97
2023-01-20T03:20:12.370Z,-2.02
2023-01-20T03:22:40.522Z,-2.18
2023-01-20T03:25:10.728Z,-1.94
2023-01-20T03:27:38.696Z,-1.93
2023-01-20T03:30:13.205Z,-1.93
2023-01-20T03:32:42.954Z,-1.96
2023-01-20T03:35:14.057Z,-1.98
2023-01-20T03:37:42.711Z,-1.97
2023-01-20T03:40:12.245Z,-2.03
2023-01-20T03:42:52.775Z,-2.02
2023-01-20T03:45:31.583Z,-2.05
2023-01-20T03:48:06.750Z,-2.10
2023-01-20T03:50:42.036Z,-2.26
2023-01-20T03:53:23.346Z,-2.17
2023-01-20T03:55:56.164Z,-2.20
2023-01-20T03:58:29.021Z,-2.23
2023-01-20T04:00:58.751Z,-2.31
2023-01-20T04:03:30.999Z,-2.29
2023-01-20T04:06:03.859Z,-2.30
2023-01-20T04:08:36.754Z,-2.31
2023-01-20T04:11:07.570Z,-2.30
2023-01-20T04:13:36.138Z,-2.31
2023-01-20T04:16:10.306Z,-2.38
2023-01-20T04:18:42.296Z,-2.29
2023-01-20T04:21:17.902Z,-2.25
2023-01-20T04:23:50.924Z,-2.25
2023-01-20T04:26:18.961Z,-2.37
2023-01-20T04:28:46.945Z,-2.21
2023-01-20T04:31:29.246Z,-2.31
2023-01-20T04:33:58.433Z,-2.22
2023-01-20T04:36:43.416Z,-2.24
2023-01-20T04:39:11.454Z,-2.16
2023-01-20T04:41:39.380Z,-2.14
2023-01-20T04:44:07.418Z,-2.97
2023-01-20T04:46:36.893Z,-2.04
2023-01-20T04:49:05.095Z,-2.11
2023-01-20T04:51:33.766Z,-1.96
2023-01-20T04:54:03.438Z,-1.93
2023-01-20T04:56:31.306Z,-1.92
2023-01-20T04:58:59.476Z,-1.92
2023-01-20T05:01:27.841Z,-1.93
2023-01-20T05:03:55.781Z,-1.94
2023-01-20T05:06:23.653Z,-1.94
2023-01-20T05:08:51.678Z,-1.95
2023-01-20T05:11:20.874Z,-1.97
2023-01-20T05:13:48.725Z,-1.95
2023-01-20T05:16:21.991Z,-2.06
2023-01-20T05:18:49.889Z,-1.92
2023-01-20T05:21:17.736Z,-1.89
2023-01-20T05:23:45.660Z,-1.93
2023-01-20T05:26:13.553Z,-1.84
2023-01-20T05:28:44.200Z,-1.82
2023-01-20T05:31:12.244Z,-1.80
2023-01-20T05:33:40.205Z,-2.02
2023-01-20T05:36:09.509Z,-1.86
2023-01-20T05:38:37.871Z,-2.10
2023-01-20T05:41:08.114Z,-1.77
2023-01-20T05:43:36.451Z,-1.76
2023-01-20T05:46:06.278Z,-1.75
2023-01-20T05:48:34.494Z,-1.73
2023-01-20T05:51:02.463Z,-1.72
2023-01-20T05:53:30.426Z,-1.71
2023-01-20T05:56:02.061Z,-1.89
2023-01-20T05:58:31.282Z,-1.72
2023-01-20T06:01:07.402Z,-1.65
2023-01-20T06:03:35.809Z,-1.63
2023-01-20T06:06:04.559Z,-1.64
2023-01-20T06:08:32.421Z,-1.66
2023-01-20T06:11:00.862Z,-1.67
2023-01-20T06:13:28.799Z,-1.68
2023-01-20T06:15:57.084Z,-1.69
2023-01-20T06:18:26.565Z,-2.05
2023-01-20T06:20:57.942Z,-1.68
2023-01-20T06:23:26.401Z,-1.68
2023-01-20T06:26:00.339Z,-1.65
2023-01-20T06:28:28.680Z,-1.63
2023-01-20T06:31:04.302Z,-1.89
2023-01-20T06:33:34.484Z,-1.67
2023-01-20T06:36:02.595Z,-1.59
2023-01-20T06:38:32.662Z,-1.57
2023-01-20T06:41:02.094Z,-1.66
2023-01-20T06:43:31.150Z,-1.59
2023-01-20T06:46:02.712Z,-1.51
2023-01-20T06:48:31.199Z,-1.69
2023-01-20T06:51:04.658Z,-1.39
2023-01-20T06:53:32.632Z,-1.36
2023-01-20T06:56:01.895Z,-1.33
2023-01-20T06:58:32.424Z,-1.31
2023-01-20T07:01:06.873Z,-1.26
2023-01-20T07:03:34.943Z,-1.38
2023-01-20T07:06:05.892Z,-1.16
2023-01-20T07:08:33.782Z,-1.14
2023-01-20T07:11:01.811Z,-1.13
2023-01-20T07:13:29.649Z,-1.16
2023-01-20T07:15:57.537Z,-1.12
2023-01-20T07:18:25.558Z,-1.31
2023-01-20T07:20:55.230Z,-1.10
2023-01-20T07:23:25.138Z,-1.07
2023-01-20T07:25:59.207Z,-1.25
2023-01-20T07:28:27.315Z,-1.05
2023-01-20T07:30:55.688Z,-1.02
2023-01-20T07:33:23.742Z,-1.00
2023-01-20T07:35:55.214Z,-1.05
2023-01-20T07:38:24.841Z,-1.32
2023-01-20T07:40:52.714Z,-1.08
2023-01-20T07:43:20.524Z,-1.21
2023-01-20T07:45:48.757Z,-1.05
2023-01-20T07:48:16.755Z,-1.16
2023-01-20T07:50:44.646Z,-1.09
2023-01-20T07:53:12.816Z,-1.12
2023-01-20T07:55:42.098Z,-1.13
2023-01-20T07:58:09.922Z,-1.14
2023-01-20T08:00:38.428Z,-1.14
2023-01-20T08:03:06.312Z,-1.15
2023-01-20T08:05:34.111Z,-1.14
2023-01-20T08:08:02.145Z,-1.11
2023-01-20T08:10:30.131Z,-1.14
2023-01-20T08:12:59.859Z,-1.18
2023-01-20T08:15:27.868Z,-1.05
2023-01-20T08:17:55.996Z,-1.11
2023-01-20T08:20:23.924Z,-0.97
2023-01-20T08:22:52.167Z,-1.25
2023-01-20T08:25:20.078Z,-0.84
2023-01-20T08:27:50.111Z,-0.76
2023-01-20T08:30:20.176Z,-0.77
2023-01-20T08:32:48.048Z,-0.71
2023-01-20T08:35:16.505Z,-0.48
2023-01-20T08:37:44.942Z,-0.66
2023-01-20T08:40:13.593Z,-0.30
2023-01-20T08:42:41.474Z,-0.21
2023-01-20T08:45:10.824Z,-0.13
2023-01-20T08:47:46.021Z,-0.03
2023-01-20T08:50:16.091Z,0.03
2023-01-20T08:52:44.239Z,0.07
2023-01-20T08:55:12.677Z,0.11
2023-01-20T08:57:40.931Z,0.14
2023-01-20T09:00:11.016Z,0.18
2023-01-20T09:02:41.018Z,0.22
2023-01-20T09:05:10.212Z,0.25
2023-01-20T09:07:38.127Z,0.07
2023-01-20T09:10:07.513Z,0.30
2023-01-20T09:12:35.630Z,0.12
2023-01-20T09:15:07.580Z,0.33
2023-01-20T09:17:36.328Z,0.41
2023-01-20T09:20:06.194Z,0.45
2023-01-20T09:22:34.081Z,0.47
2023-01-20T09:25:02.634Z,0.17
2023-01-20T09:27:30.474Z,0.53
2023-01-20T09:29:58.455Z,0.48
2023-01-20T09:32:26.320Z,0.48
2023-01-20T09:34:54.217Z,0.61
2023-01-20T09:37:41.172Z,0.39
2023-01-20T09:40:30.834Z,0.64
2023-01-20T09:43:29.941Z,0.62
2023-01-20T09:46:02.354Z,0.52
2023-01-20T09:48:57.286Z,0.71
2023-01-20T09:51:50.835Z,0.73
2023-01-20T09:54:26.813Z,0.76
2023-01-20T09:56:57.511Z,0.59
2023-01-20T09:59:29.323Z,0.82
2023-01-20T10:01:59.091Z,0.87
2023-01-20T10:04:34.025Z,0.91
2023-01-20T10:07:10.020Z,0.85
2023-01-20T10:09:45.563Z,0.97
2023-01-20T10:12:18.902Z,1.01
2023-01-20T10:14:54.490Z,1.05
2023-01-20T10:17:28.984Z,1.08
2023-01-20T10:20:04.257Z,1.12
2023-01-20T10:22:37.692Z,1.16
2023-01-20T10:25:13.822Z,1.19
2023-01-20T10:27:51.495Z,1.17
2023-01-20T10:30:23.179Z,1.06
2023-01-20T10:32:58.398Z,1.37
2023-01-20T10:35:27.964Z,1.39
2023-01-20T10:37:58.570Z,1.40
2023-01-20T10:40:35.453Z,1.19
2023-01-20T10:43:11.942Z,1.39
2023-01-20T10:45:57.601Z,1.44
2023-01-20T10:48:40.854Z,1.45
2023-01-20T10:51:14.289Z,1.47
2023-01-20T10:54:07.278Z,1.49
2023-01-20T10:56:45.104Z,1.52
2023-01-20T10:59:19.042Z,1.53
2023-01-20T11:02:02.475Z,1.55
2023-01-20T11:04:41.375Z,1.59
2023-01-20T11:07:16.499Z,1.60
2023-01-20T11:09:44.699Z,1.61
2023-01-20T11:12:17.084Z,1.63
2023-01-20T11:14:45.401Z,1.67
2023-01-20T11:17:16.996Z,1.71
2023-01-20T11:19:51.868Z,1.76
2023-01-20T11:22:27.605Z,1.78
2023-01-20T11:24:59.347Z,1.80
2023-01-20T11:27:33.185Z,1.84
2023-01-20T11:30:05.282Z,1.85
2023-01-20T11:32:36.968Z,1.85
2023-01-20T11:35:22.005Z,1.87
2023-01-20T11:37:50.094Z,1.88
2023-01-20T11:40:22.706Z,1.48
2023-01-20T11:42:54.246Z,1.92
2023-01-20T11:45:28.896Z,1.95
2023-01-20T11:48:03.325Z,1.91
2023-01-20T11:50:38.564Z,1.99
2023-01-20T11:53:17.529Z,2.03
2023-01-20T11:55:50.537Z,2.04
2023-01-20T11:58:22.646Z,2.08
2023-01-20T12:00:53.030Z,2.10
2023-01-20T12:03:57.697Z,2.01
2023-01-20T12:06:29.170Z,2.17
2023-01-20T12:09:02.306Z,2.18
2023-01-20T12:11:33.510Z,2.03
2023-01-20T12:14:28.638Z,2.23
2023-01-20T12:17:04.740Z,2.24
2023-01-20T12:19:41.879Z,2.26
2023-01-20T12:22:14.777Z,2.33
2023-01-20T12:25:13.178Z,2.38
2023-01-20T12:27:48.555Z,2.42
2023-01-20T12:30:52.035Z,2.18
2023-01-20T12:33:25.318Z,2.38
2023-01-20T12:36:26.113Z,2.47
2023-01-20T12:39:18.601Z,2.46
2023-01-20T12:42:15.291Z,2.47
2023-01-20T12:44:47.837Z,2.47
2023-01-20T12:47:26.028Z,2.49
2023-01-20T12:50:14.350Z,2.43
2023-01-20T12:52:53.742Z,2.52
2023-01-20T12:55:33.961Z,2.51
2023-01-20T12:58:18.927Z,2.51
2023-01-20T13:01:10.521Z,2.41
2023-01-20T13:04:05.011Z,2.46
2023-01-20T13:06:42.997Z,2.38
2023-01-20T13:09:38.110Z,2.37
2023-01-20T13:12:23.289Z,2.42
2023-01-20T13:14:59.752Z,2.40
2023-01-20T13:17:34.307Z,2.37
2023-01-20T13:20:05.872Z,2.25
2023-01-20T13:22:36.003Z,2.17
2023-01-20T13:25:04.928Z,2.12
2023-01-20T13:27:36.783Z,2.09
2023-01-20T13:30:08.406Z,2.09
2023-01-20T13:32:38.193Z,2.05
2023-01-20T13:35:43.411Z,1.70
2023-01-20T13:38:21.352Z,2.00
2023-01-20T13:40:52.562Z,1.71
2023-01-20T13:43:47.964Z,1.87
2023-01-20T13:46:39.297Z,1.73
2023-01-20T13:49:26.099Z,1.52
2023-01-20T13:51:54.152Z,1.44
2023-01-20T13:54:48.962Z,1.47
2023-01-20T13:57:36.998Z,1.39
2023-01-20T14:00:21.091Z,1.00
2023-01-20T14:02:50.670Z,1.30
2023-01-20T14:05:24.175Z,1.39
2023-01-20T14:07:52.095Z,1.41
2023-01-20T14:10:21.378Z,1.42
2023-01-20T14:12:49.314Z,1.44
2023-01-20T14:15:33.919Z,1.27
2023-01-20T14:18:02.491Z,1.54
2023-01-20T14:20:31.313Z,1.59
2023-01-20T14:23:37.681Z,1.50
2023-01-20T14:26:12.857Z,1.45
2023-01-20T14:28:50.059Z,1.65
2023-01-20T14:31:24.186Z,1.38
2023-01-20T14:33:57.848Z,1.61
2023-01-20T14:36:27.786Z,1.58
2023-01-20T14:38:58.815Z,1.55
2023-01-20T14:41:31.604Z,1.53
2023-01-20T14:44:00.227Z,1.53
2023-01-20T14:46:29.762Z,1.55
2023-01-20T14:48:58.660Z,1.57
2023-01-20T14:51:26.974Z,1.39
2023-01-20T14:54:30.058Z,1.63
2023-01-20T14:57:00.334Z,1.59
2023-01-20T14:59:28.469Z,1.59
2023-01-20T15:02:01.954Z,1.65
2023-01-20T15:04:36.653Z,1.57
2023-01-20T15:07:05.677Z,1.58
2023-01-20T15:09:35.668Z,1.62
2023-01-20T15:12:46.107Z,1.59
2023-01-20T15:15:31.536Z,1.52
2023-01-20T15:18:23.556Z,1.48
2023-01-20T15:21:03.824Z,1.46
2023-01-20T15:23:38.416Z,1.42
2023-01-20T15:26:11.551Z,1.47
2023-01-20T15:28:43.889Z,1.49
2023-01-20T15:31:16.060Z,1.48
2023-01-20T15:33:44.326Z,1.48
2023-01-20T15:36:24.484Z,1.57
2023-01-20T15:38:52.610Z,1.46
2023-01-20T15:41:20.657Z,1.60
2023-01-20T15:43:51.435Z,1.44
2023-01-20T15:46:21.592Z,1.61
2023-01-20T15:48:49.633Z,1.60
2023-01-20T15:51:20.428Z,1.48
2023-01-20T15:53:48.973Z,1.61
2023-01-20T15:56:20.652Z,1.61
2023-01-20T15:58:48.792Z,1.60
2023-01-20T16:01:20.242Z,1.59
2023-01-20T16:03:51.497Z,1.60
2023-01-20T16:06:21.226Z,1.46
2023-01-20T16:08:51.214Z,1.63
2023-01-20T16:11:20.707Z,1.65
2023-01-20T16:13:48.602Z,1.66
2023-01-20T16:16:18.471Z,1.68
2023-01-20T16:18:46.830Z,1.62
2023-01-20T16:21:18.238Z,1.39
2023-01-20T16:23:46.510Z,1.60
2023-01-20T16:26:22.405Z,1.73
2023-01-20T16:28:50.495Z,1.76
2023-01-20T16:31:19.441Z,1.70
2023-01-20T16:33:47.629Z,1.78
2023-01-20T16:36:19.104Z,1.79
2023-01-20T16:38:47.472Z,1.81
2023-01-20T16:41:18.783Z,1.81
2023-01-20T16:43:46.817Z,1.83
2023-01-20T16:46:15.603Z,1.82
2023-01-20T16:48:43.883Z,1.78
2023-01-20T16:51:14.143Z,1.83
2023-01-20T16:53:43.551Z,1.75
2023-01-20T16:56:17.999Z,1.69
2023-01-20T16:58:48.612Z,1.81
2023-01-20T17:01:21.229Z,1.81
2023-01-20T17:03:49.641Z,1.81
2023-01-20T17:06:19.492Z,1.83
2023-01-20T17:08:50.771Z,1.68
2023-01-20T17:11:19.372Z,1.78
2023-01-20T17:13:47.945Z,1.82
2023-01-20T17:16:16.691Z,1.83
2023-01-20T17:18:45.714Z,1.82
2023-01-20T17:21:14.858Z,1.75
2023-01-20T17:23:43.340Z,1.84
2023-01-20T17:26:12.640Z,1.85
2023-01-20T17:28:40.478Z,1.85
2023-01-20T17:31:08.478Z,1.84
2023-01-20T17:33:36.340Z,1.86
2023-01-20T17:36:06.074Z,1.86
2023-01-20T17:38:37.687Z,1.87
2023-01-20T17:41:06.504Z,1.87
2023-01-20T17:43:37.324Z,1.85
2023-01-20T17:46:13.873Z,1.86
2023-01-20T17:48:41.774Z,1.87
2023-01-20T17:51:10.904Z,1.86
2023-01-20T17:53:39.082Z,1.67
2023-01-20T17:56:12.691Z,1.88
2023-01-20T17:58:44.083Z,1.69
2023-01-20T18:01:13.932Z,1.83
2023-01-20T18:03:43.425Z,1.91
2023-01-20T18:06:12.521Z,1.91
2023-01-20T18:08:41.079Z,1.93
2023-01-20T18:11:11.392Z,1.78
2023-01-20T18:13:39.821Z,1.93
2023-01-20T18:16:12.440Z,1.95
2023-01-20T18:18:40.664Z,1.72
2023-01-20T18:21:10.299Z,1.66
2023-01-20T18:23:39.326Z,1.92
2023-01-20T18:26:08.682Z,1.89
2023-01-20T18:28:37.084Z,1.88
2023-01-20T18:31:09.183Z,1.85
2023-01-20T18:33:41.126Z,1.83
2023-01-20T18:36:13.714Z,1.79
2023-01-20T18:38:43.597Z,1.75
2023-01-20T18:41:12.084Z,1.72
2023-01-20T18:43:40.006Z,1.65
2023-01-20T18:46:08.551Z,1.64
2023-01-20T18:48:40.428Z,1.60
2023-01-20T18:51:10.987Z,1.55
2023-01-20T18:53:39.114Z,1.46
2023-01-20T18:56:09.236Z,1.31
2023-01-20T18:58:39.078Z,1.33
2023-01-20T19:01:08.851Z,1.26
2023-01-20T19:03:38.128Z,1.19
2023-01-20T19:06:11.016Z,1.13
2023-01-20T19:08:39.379Z,1.01
2023-01-20T19:11:09.864Z,1.04
2023-01-20T19:13:37.993Z,1.00
2023-01-20T19:16:10.251Z,0.88
2023-01-20T19:18:38.880Z,0.55
2023-01-20T19:21:09.951Z,0.07
2023-01-20T19:23:38.018Z,0.85
2023-01-20T19:26:07.962Z,0.75
2023-01-20T19:28:36.549Z,0.79
2023-01-20T19:31:06.399Z,0.63
2023-01-20T19:33:34.809Z,0.67
2023-01-20T19:36:04.050Z,0.72
2023-01-20T19:38:34.334Z,0.74
2023-01-20T19:41:06.178Z,0.53
2023-01-20T19:43:34.057Z,0.76
2023-01-20T19:46:03.442Z,0.76
2023-01-20T19:48:32.613Z,0.61
2023-01-20T19:51:04.118Z,0.72
2023-01-20T19:53:34.232Z,0.29
2023-01-20T19:56:03.040Z,0.65
2023-01-20T19:58:31.070Z,0.61
2023-01-20T20:01:07.291Z,0.61
2023-01-20T20:03:36.143Z,0.38
2023-01-20T20:06:04.844Z,0.45
2023-01-20T20:08:36.414Z,0.59
2023-01-20T20:11:04.616Z,0.63
2023-01-20T20:13:32.615Z,0.68
2023-01-20T20:16:09.156Z,0.72
2023-01-20T20:18:37.797Z,0.76
2023-01-20T20:21:06.824Z,0.81
2023-01-20T20:23:36.151Z,0.84
2023-01-20T20:26:04.022Z,0.89
2023-01-20T20:28:31.927Z,0.94
2023-01-20T20:31:06.123Z,0.99
2023-01-20T20:33:34.359Z,0.93
2023-01-20T20:36:06.759Z,1.05
2023-01-20T20:38:36.775Z,0.97
2023-01-20T20:41:07.858Z,1.05
2023-01-20T20:43:36.099Z,1.05
2023-01-20T20:46:05.488Z,0.97
2023-01-20T20:48:34.650Z,0.93
2023-01-20T20:51:06.302Z,0.97
2023-01-20T20:53:35.654Z,0.88
2023-01-20T20:56:07.926Z,0.62
2023-01-20T20:58:35.903Z,1.01
2023-01-20T21:01:06.619Z,1.00
2023-01-20T21:03:36.612Z,1.00
2023-01-20T21:06:05.221Z,0.90
2023-01-20T21:08:33.083Z,1.00
2023-01-20T21:11:03.092Z,1.02
2023-01-20T21:13:31.724Z,1.03
2023-01-20T21:16:03.624Z,0.98
2023-01-20T21:18:33.386Z,0.80
2023-01-20T21:21:02.760Z,1.01
2023-01-20T21:23:32.454Z,1.01
2023-01-20T21:26:03.498Z,1.03
2023-01-20T21:28:34.413Z,1.04
2023-01-20T21:31:02.892Z,0.99
2023-01-20T21:33:31.017Z,0.80
2023-01-20T21:35:58.874Z,1.02
2023-01-20T21:38:26.831Z,1.03
2023-01-20T21:41:03.455Z,1.04
2023-01-20T21:43:55.192Z,1.06
2023-01-20T21:46:23.760Z,1.03
2023-01-20T21:49:09.559Z,1.04
2023-01-20T21:51:54.764Z,0.30
2023-01-20T21:54:22.861Z,1.05
2023-01-20T21:56:52.472Z,0.89
2023-01-20T21:59:21.951Z,1.08
2023-01-20T22:01:50.030Z,1.07
2023-01-20T22:04:18.261Z,1.07
2023-01-20T22:06:46.707Z,1.07
2023-01-20T22:09:14.846Z,1.06
2023-01-20T22:11:42.720Z,1.06
2023-01-20T22:14:11.162Z,1.06
2023-01-20T22:16:40.775Z,1.08
2023-01-20T22:19:08.685Z,1.01
2023-01-20T22:21:36.598Z,1.08
2023-01-20T22:24:04.787Z,1.10
2023-01-20T22:26:32.659Z,1.04
2023-01-20T22:29:00.556Z,1.08
2023-01-20T22:31:30.186Z,1.07
2023-01-20T22:34:04.144Z,0.87
2023-01-20T22:36:32.349Z,1.08
2023-01-20T22:39:00.499Z,1.09
2023-01-20T22:41:28.793Z,1.11
2023-01-20T22:43:56.974Z,0.97
2023-01-20T22:46:27.088Z,1.08
2023-01-20T22:48:57.305Z,1.13
2023-01-20T22:51:28.521Z,0.92
2023-01-20T22:53:57.907Z,1.14
2023-01-20T22:56:27.896Z,1.14
2023-01-20T22:58:56.543Z,1.00
2023-01-20T23:01:26.640Z,1.14
2023-01-20T23:03:55.967Z,1.12
2023-01-20T23:06:24.920Z,0.70
2023-01-20T23:08:54.462Z,0.84
2023-01-20T23:11:24.160Z,1.00
2023-01-20T23:13:53.299Z,0.95
2023-01-20T23:16:23.324Z,0.93
2023-01-20T23:18:52.648Z,0.85
2023-01-20T23:21:21.086Z,0.93
2023-01-20T23:23:54.803Z,0.74
2023-01-20T23:26:25.793Z,0.92
2023-01-20T23:28:55.346Z,0.72
2023-01-20T23:31:24.653Z,0.93
2023-01-20T23:33:54.633Z,0.92
2023-01-20T23:36:24.606Z,0.91
2023-01-20T23:38:54.697Z,0.86
2023-01-20T23:41:24.320Z,0.96
2023-01-20T23:43:52.348Z,0.93
2023-01-20T23:46:21.628Z,0.84
2023-01-20T23:48:49.647Z,0.78
2023-01-20T23:51:17.657Z,0.74
2023-01-20T23:53:45.746Z,0.71
2023-01-20T23:56:16.318Z,0.64
2023-01-20T23:58:46.019Z,0.61
